Time;durP1;ratioP1;P1;durP2;ratioP2;P2;SDS_P1;SDS_P2;PMS_P1;PMS_P2;Temp;Humidity;BMP_temperature;BMP_pressure;BME280_temperature;BME280_humidity;BME280_pressure;Samples;Min_cycle;Max_cycle;Signal;HPM_P1;HPM_P2
2024/02/05 00:01:54;;;;;;;;;;;2.60;99.90;;;;;;5052857;28;19928;-61
2024/02/05 00:04:22;;;;;;;;;;;2.60;99.90;;;;;;5053624;28;19935;-60
2024/02/05 00:06:49;;;;;;;;;;;2.60;99.90;;;;;;5054525;28;19960;-63
2024/02/05 00:09:15;;;;;;;;;;;2.60;99.90;;;;;;5052312;28;20269;-60
2024/02/05 00:11:42;;;;;;;;;;;2.60;99.90;;;;;;5059227;28;19924;-64
2024/02/05 00:14:09;;;;;;;;;;;2.60;99.90;;;;;;5048812;28;20002;-64
2024/02/05 00:16:36;;;;;;;;;;;2.60;99.90;;;;;;5051639;28;20375;-60
2024/02/05 00:19:03;;;;;;;;;;;2.60;99.90;;;;;;5054730;28;19924;-65
2024/02/05 00:21:30;;;;;;;;;;;2.70;99.90;;;;;;5059231;28;20485;-59
2024/02/05 00:23:57;;;;;;;;;;;2.70;99.90;;;;;;5057788;28;19979;-63
2024/02/05 00:26:24;;;;;;;;;;;2.70;99.90;;;;;;5058446;28;19928;-65
2024/02/05 00:28:50;;;;;;;;;;;2.70;99.90;;;;;;5055960;28;20496;-62
2024/02/05 00:31:17;;;;;;;;;;;2.70;99.90;;;;;;5054601;28;19925;-62
2024/02/05 00:33:45;;;;;;;;;;;2.60;99.90;;;;;;5053793;28;20759;-70
2024/02/05 00:36:12;;;;;;;;;;;2.60;99.90;;;;;;5053932;28;20302;-67
2024/02/05 00:38:39;;;;;;;;;;;2.60;99.90;;;;;;5053222;28;19964;-59
2024/02/05 00:41:07;;;;;;;;;;;2.60;99.90;;;;;;5048686;28;20113;-60
2024/02/05 00:43:35;;;;;;;;;;;2.50;99.90;;;;;;5051927;28;20028;-66
2024/02/05 00:46:03;;;;;;;;;;;2.50;99.90;;;;;;5048589;28;19929;-60
2024/02/05 00:48:30;;;;;;;;;;;2.50;99.90;;;;;;5051075;28;19924;-59
2024/02/05 00:50:57;;;;;;;;;;;2.50;99.90;;;;;;5053179;28;20023;-60
2024/02/05 00:53:23;;;;;;;;;;;2.50;99.90;;;;;;5053978;28;19979;-62
2024/02/05 00:55:50;;;;;;;;;;;2.50;99.90;;;;;;5050156;28;19925;-63
2024/02/05 00:58:17;;;;;;;;;;;2.50;99.90;;;;;;5054422;28;19924;-67
2024/02/05 01:00:44;;;;;;;;;;;2.50;99.90;;;;;;5051873;28;19935;-61
2024/02/05 01:03:12;;;;;;;;;;;2.40;99.90;;;;;;5054075;28;19929;-60
2024/02/05 01:05:39;;;;;;;;;;;2.40;99.90;;;;;;5055406;28;19925;-61
2024/02/05 01:08:06;;;;;;;;;;;2.40;99.90;;;;;;5050226;28;20636;-63
2024/02/05 01:10:33;;;;;;;;;;;2.40;99.90;;;;;;5050687;28;19925;-63
2024/02/05 01:13:00;;;;;;;;;;;2.40;99.90;;;;;;5051971;28;19925;-60
2024/02/05 01:15:27;;;;;;;;;;;2.40;99.90;;;;;;5049552;28;19968;-59
2024/02/05 01:17:53;;;;;;;;;;;2.40;99.90;;;;;;5045830;28;19925;-60
2024/02/05 01:20:20;;;;;;;;;;;2.40;99.90;;;;;;5050941;28;19979;-70
2024/02/05 01:22:48;;;;;;;;;;;2.40;99.90;;;;;;5053229;28;20383;-60
2024/02/05 01:25:15;;;;;;;;;;;2.40;99.90;;;;;;5045720;28;19960;-65
2024/02/05 01:27:42;;;;;;;;;;;2.40;99.90;;;;;;5048945;28;19936;-60
2024/02/05 01:30:09;;;;;;;;;;;2.40;99.90;;;;;;5051074;28;19951;-63
2024/02/05 01:32:37;;;;;;;;;;;2.40;99.90;;;;;;5054459;28;20478;-60
2024/02/05 01:35:04;;;;;;;;;;;2.40;99.90;;;;;;5051962;28;19931;-63
2024/02/05 01:37:31;;;;;;;;;;;2.40;99.90;;;;;;5054053;28;19928;-59
2024/02/05 01:39:58;;;;;;;;;;;2.40;99.90;;;;;;5057611;28;19925;-67
2024/02/05 01:42:25;;;;;;;;;;;2.40;99.90;;;;;;5052324;28;19932;-62
2024/02/05 01:44:52;;;;;;;;;;;2.40;99.90;;;;;;5062186;28;19990;-65
2024/02/05 01:47:19;;;;;;;;;;;2.40;99.90;;;;;;5057290;28;19929;-60
2024/02/05 01:49:47;;;;;;;;;;;2.40;99.90;;;;;;5058996;28;19929;-61
2024/02/05 01:52:16;;;;;;;;;;;2.40;99.90;;;;;;5054558;28;19931;-71
2024/02/05 01:54:44;;;;;;;;;;;2.30;99.90;;;;;;5056888;28;19982;-65
2024/02/05 01:57:11;;;;;;;;;;;2.30;99.90;;;;;;5062570;28;20298;-59
2024/02/05 01:59:38;;;;;;;;;;;2.30;99.90;;;;;;5057873;28;19925;-59
2024/02/05 02:02:06;;;;;;;;;;;2.40;99.90;;;;;;5061319;28;20519;-67
2024/02/05 02:04:33;;;;;;;;;;;2.40;99.90;;;;;;5055932;28;19928;-60
2024/02/05 02:07:03;;;;;;;;;;;2.30;99.90;;;;;;5059267;28;19964;-60
2024/02/05 02:09:30;;;;;;;;;;;2.30;99.90;;;;;;5052999;28;20346;-59
2024/02/05 02:11:57;;;;;;;;;;;2.30;99.90;;;;;;5063617;28;20279;-63
2024/02/05 02:14:24;;;;;;;;;;;2.30;99.90;;;;;;5056407;28;19932;-63
2024/02/05 02:16:51;;;;;;;;;;;2.30;99.90;;;;;;5055660;28;19941;-59
2024/02/05 02:19:27;;;;;;;;;;;2.30;99.90;;;;;;5058630;28;19928;-64
2024/02/05 02:21:57;;;;;;;;;;;2.30;99.90;;;;;;5048898;28;19964;-60
2024/02/05 02:24:25;;;;;;;;;;;2.30;99.90;;;;;;5055265;28;19924;-71
2024/02/05 02:26:52;;;;;;;;;;;2.40;99.90;;;;;;5055563;28;19932;-59
2024/02/05 02:29:18;;;;;;;;;;;2.40;99.90;;;;;;5058673;28;19929;-60
2024/02/05 02:31:45;;;;;;;;;;;2.40;99.90;;;;;;5052873;28;19969;-62
2024/02/05 02:34:18;;;;;;;;;;;2.40;99.90;;;;;;5042999;28;19968;-62
2024/02/05 02:36:52;;;;;;;;;;;2.40;99.90;;;;;;5051498;28;19933;-63
2024/02/05 02:39:21;;;;;;;;;;;2.40;99.90;;;;;;5055877;28;19947;-63
2024/02/05 02:41:49;;;;;;;;;;;2.40;99.90;;;;;;5055190;28;19937;-62
2024/02/05 02:44:16;;;;;;;;;;;2.50;99.90;;;;;;5052445;28;19978;-64
2024/02/05 02:46:43;;;;;;;;;;;2.50;99.90;;;;;;5052253;28;20344;-67
2024/02/05 02:49:10;;;;;;;;;;;2.50;99.90;;;;;;5055585;28;19924;-64
2024/02/05 02:51:37;;;;;;;;;;;2.50;99.90;;;;;;5034700;28;19933;-60
2024/02/05 02:54:04;;;;;;;;;;;2.40;99.90;;;;;;5054558;28;20043;-72
2024/02/05 02:56:31;;;;;;;;;;;2.50;99.90;;;;;;5061571;28;19960;-62
2024/02/05 02:58:58;;;;;;;;;;;2.40;99.90;;;;;;5058122;28;19970;-61
2024/02/05 03:01:25;;;;;;;;;;;2.40;99.90;;;;;;5053731;28;19929;-60
2024/02/05 03:03:52;;;;;;;;;;;2.30;99.90;;;;;;5053208;28;20077;-64
2024/02/05 03:06:19;;;;;;;;;;;2.30;99.90;;;;;;5055895;28;19979;-67
2024/02/05 03:08:45;;;;;;;;;;;2.40;99.90;;;;;;5061811;28;19968;-66
2024/02/05 03:11:12;;;;;;;;;;;2.40;99.90;;;;;;5057045;28;20339;-66
2024/02/05 03:13:39;;;;;;;;;;;2.40;99.90;;;;;;5060754;28;19928;-60
2024/02/05 03:16:06;;;;;;;;;;;2.40;99.90;;;;;;5055112;28;19925;-63
2024/02/05 03:18:33;;;;;;;;;;;2.40;99.90;;;;;;5065156;28;19934;-62
2024/02/05 03:21:00;;;;;;;;;;;2.40;99.90;;;;;;5053667;28;19928;-62
2024/02/05 03:23:26;;;;;;;;;;;2.40;99.90;;;;;;5055598;28;19925;-63
2024/02/05 03:25:53;;;;;;;;;;;2.50;99.90;;;;;;5055059;28;20330;-66
2024/02/05 03:28:23;;;;;;;;;;;2.40;99.90;;;;;;5054359;28;19928;-63
2024/02/05 03:30:50;;;;;;;;;;;2.40;99.90;;;;;;5049769;28;19940;-61
2024/02/05 03:33:17;;;;;;;;;;;2.40;99.90;;;;;;5052257;28;19924;-67
2024/02/05 03:35:44;;;;;;;;;;;2.40;99.90;;;;;;5056237;28;19925;-65
2024/02/05 03:38:11;;;;;;;;;;;2.40;99.90;;;;;;5061331;28;19929;-59
2024/02/05 03:40:38;;;;;;;;;;;2.40;99.90;;;;;;5063147;28;20023;-75
2024/02/05 03:43:05;;;;;;;;;;;2.40;99.90;;;;;;5074585;28;19986;-64
2024/02/05 03:45:31;;;;;;;;;;;2.40;99.90;;;;;;5057115;28;20123;-60
2024/02/05 03:47:58;;;;;;;;;;;2.40;99.90;;;;;;5046156;28;19967;-69
2024/02/05 03:50:25;;;;;;;;;;;2.30;99.90;;;;;;5060919;28;19978;-61
2024/02/05 03:52:52;;;;;;;;;;;2.30;99.90;;;;;;5052237;28;19972;-60
2024/02/05 03:55:19;;;;;;;;;;;2.30;99.90;;;;;;5052880;28;19936;-61
2024/02/05 03:57:56;;;;;;;;;;;2.30;99.90;;;;;;5051314;28;19968;-65
2024/02/05 04:00:23;;;;;;;;;;;2.20;99.90;;;;;;5059938;28;19936;-59
2024/02/05 04:02:49;;;;;;;;;;;2.20;99.90;;;;;;5078076;28;19996;-63
2024/02/05 04:05:17;;;;;;;;;;;2.20;99.90;;;;;;5053789;28;19925;-61
2024/02/05 04:07:44;;;;;;;;;;;2.20;99.90;;;;;;5049903;28;19925;-66
2024/02/05 04:10:11;;;;;;;;;;;2.20;99.90;;;;;;5051764;28;19925;-60
2024/02/05 04:12:38;;;;;;;;;;;2.20;99.90;;;;;;5052092;28;19925;-60
2024/02/05 04:15:07;;;;;;;;;;;2.20;99.90;;;;;;5053257;28;19932;-60
2024/02/05 04:17:34;;;;;;;;;;;2.20;99.90;;;;;;5053594;28;19932;-59
2024/02/05 04:20:01;;;;;;;;;;;2.20;99.90;;;;;;5053043;28;19932;-60
2024/02/05 04:22:28;;;;;;;;;;;2.20;99.90;;;;;;5047563;28;19960;-61
2024/02/05 04:24:55;;;;;;;;;;;2.20;99.90;;;;;;5056971;28;19963;-60
2024/02/05 04:27:21;;;;;;;;;;;2.20;99.90;;;;;;5055907;28;19931;-59
2024/02/05 04:29:48;;;;;;;;;;;2.20;99.90;;;;;;5052142;28;19925;-60
2024/02/05 04:32:15;;;;;;;;;;;2.20;99.90;;;;;;5046721;28;20389;-66
2024/02/05 04:34:42;;;;;;;;;;;2.20;99.90;;;;;;5053310;28;19960;-61
2024/02/05 04:37:09;;;;;;;;;;;2.20;99.90;;;;;;5052182;28;19939;-75
2024/02/05 04:39:36;;;;;;;;;;;2.20;99.90;;;;;;5052363;28;20027;-61
2024/02/05 04:42:03;;;;;;;;;;;2.20;99.90;;;;;;5048286;28;20023;-59
2024/02/05 04:44:29;;;;;;;;;;;2.20;99.90;;;;;;5055461;28;19978;-59
2024/02/05 04:46:57;;;;;;;;;;;2.20;99.90;;;;;;5049699;28;19982;-67
2024/02/05 04:49:24;;;;;;;;;;;2.20;99.90;;;;;;5054256;28;19924;-61
2024/02/05 04:51:50;;;;;;;;;;;2.20;99.90;;;;;;5057641;28;19935;-63
2024/02/05 04:54:17;;;;;;;;;;;2.20;99.90;;;;;;5052900;28;19928;-65
2024/02/05 04:56:45;;;;;;;;;;;2.10;99.90;;;;;;5053725;28;19925;-65
2024/02/05 04:59:12;;;;;;;;;;;2.20;99.90;;;;;;5051487;28;20370;-64
2024/02/05 05:01:39;;;;;;;;;;;2.20;99.90;;;;;;5053279;28;20550;-60
2024/02/05 05:04:06;;;;;;;;;;;2.20;99.90;;;;;;5051031;28;20019;-59
2024/02/05 05:06:33;;;;;;;;;;;2.20;99.90;;;;;;5056156;28;19925;-59
2024/02/05 05:09:00;;;;;;;;;;;2.20;99.90;;;;;;5051730;28;19925;-70
2024/02/05 05:11:27;;;;;;;;;;;2.20;99.90;;;;;;5054002;28;19929;-62
2024/02/05 05:13:54;;;;;;;;;;;2.20;99.90;;;;;;5067321;28;20353;-59
2024/02/05 05:16:21;;;;;;;;;;;2.20;99.90;;;;;;5049027;28;19924;-61
2024/02/05 05:18:48;;;;;;;;;;;2.30;99.90;;;;;;5054502;28;19933;-62
2024/02/05 05:21:15;;;;;;;;;;;2.40;99.90;;;;;;5054269;28;20017;-65
2024/02/05 05:23:42;;;;;;;;;;;2.40;99.90;;;;;;5047649;28;19944;-63
2024/02/05 05:26:09;;;;;;;;;;;2.40;99.90;;;;;;5055586;28;19929;-59
2024/02/05 05:28:40;;;;;;;;;;;2.30;99.90;;;;;;5059082;28;19968;-61
2024/02/05 05:31:07;;;;;;;;;;;2.30;99.90;;;;;;5059340;28;19970;-60
2024/02/05 05:33:35;;;;;;;;;;;2.30;99.90;;;;;;5055400;28;19925;-62
2024/02/05 05:36:03;;;;;;;;;;;2.30;99.90;;;;;;5052037;28;19932;-60
2024/02/05 05:38:30;;;;;;;;;;;2.30;99.90;;;;;;5052079;28;19933;-59
2024/02/05 05:40:57;;;;;;;;;;;2.30;99.90;;;;;;5058112;28;19951;-64
2024/02/05 05:43:23;;;;;;;;;;;2.40;99.90;;;;;;5053736;28;19970;-64
2024/02/05 05:45:51;;;;;;;;;;;2.40;99.90;;;;;;5051230;28;19924;-59
2024/02/05 05:48:18;;;;;;;;;;;2.40;99.90;;;;;;5053075;28;19924;-63
2024/02/05 05:50:45;;;;;;;;;;;2.40;99.90;;;;;;5057305;28;20252;-64
2024/02/05 05:53:11;;;;;;;;;;;2.40;99.90;;;;;;5054536;28;19950;-60
2024/02/05 05:55:38;;;;;;;;;;;2.40;99.90;;;;;;5056707;28;20282;-60
2024/02/05 05:58:05;;;;;;;;;;;2.50;99.90;;;;;;5056982;28;19929;-62
2024/02/05 06:00:32;;;;;;;;;;;2.40;99.90;;;;;;5060140;28;19940;-68
2024/02/05 06:02:59;;;;;;;;;;;2.40;99.90;;;;;;5062440;28;19970;-60
2024/02/05 06:05:25;;;;;;;;;;;2.40;99.90;;;;;;5059384;28;19928;-61
2024/02/05 06:07:52;;;;;;;;;;;2.40;99.90;;;;;;5056141;28;20574;-59
2024/02/05 06:10:19;;;;;;;;;;;2.40;99.90;;;;;;5057593;28;19938;-64
2024/02/05 06:12:47;;;;;;;;;;;2.40;99.90;;;;;;5056477;28;19955;-62
2024/02/05 06:15:14;;;;;;;;;;;2.40;99.90;;;;;;5057035;28;19929;-65
2024/02/05 06:17:41;;;;;;;;;;;2.40;99.90;;;;;;5058830;28;19931;-58
2024/02/05 06:20:08;;;;;;;;;;;2.40;99.90;;;;;;5055328;28;20294;-61
2024/02/05 06:22:42;;;;;;;;;;;2.40;99.90;;;;;;5054456;28;20231;-62
2024/02/05 06:25:09;;;;;;;;;;;2.40;99.90;;;;;;5052857;28;19948;-64
2024/02/05 06:27:36;;;;;;;;;;;2.30;99.90;;;;;;5054537;28;19925;-60
2024/02/05 06:30:03;;;;;;;;;;;2.40;99.90;;;;;;5056123;28;19931;-69
2024/02/05 06:32:30;;;;;;;;;;;2.30;99.90;;;;;;5057869;28;19972;-64
2024/02/05 06:34:56;;;;;;;;;;;2.30;99.90;;;;;;5054512;28;19928;-64
2024/02/05 06:37:24;;;;;;;;;;;2.30;99.90;;;;;;5055093;28;20457;-76
2024/02/05 06:39:50;;;;;;;;;;;2.30;99.90;;;;;;5057046;28;19925;-59
2024/02/05 06:42:19;;;;;;;;;;;2.30;99.90;;;;;;5052805;28;19925;-59
2024/02/05 06:44:47;;;;;;;;;;;2.30;99.90;;;;;;5051888;28;19975;-62
2024/02/05 06:47:13;;;;;;;;;;;2.30;99.90;;;;;;5055865;28;19928;-62
2024/02/05 06:49:40;;;;;;;;;;;2.30;99.90;;;;;;5055239;28;19974;-63
2024/02/05 06:52:07;;;;;;;;;;;2.20;99.90;;;;;;5055427;28;20294;-61
2024/02/05 06:54:34;;;;;;;;;;;2.20;99.90;;;;;;5051007;28;19932;-63
2024/02/05 06:57:01;;;;;;;;;;;2.20;99.90;;;;;;5055231;28;20378;-60
2024/02/05 06:59:28;;;;;;;;;;;2.20;99.90;;;;;;5053560;28;19951;-60
2024/02/05 07:01:54;;;;;;;;;;;2.20;99.90;;;;;;5056111;28;19924;-60
2024/02/05 07:04:22;;;;;;;;;;;2.30;99.90;;;;;;5054694;28;19974;-59
2024/02/05 07:06:49;;;;;;;;;;;2.30;99.90;;;;;;5059205;28;20310;-63
2024/02/05 07:09:16;;;;;;;;;;;2.30;99.90;;;;;;5058467;28;19939;-71
2024/02/05 07:11:43;;;;;;;;;;;2.30;99.90;;;;;;5053240;28;19964;-69
2024/02/05 07:14:10;;;;;;;;;;;2.20;99.90;;;;;;5055237;28;19970;-59
2024/02/05 07:16:37;;;;;;;;;;;2.20;99.90;;;;;;5050676;28;19948;-59
2024/02/05 07:19:03;;;;;;;;;;;2.20;99.90;;;;;;5057779;28;19925;-68
2024/02/05 07:21:30;;;;;;;;;;;2.20;99.90;;;;;;5051096;28;20330;-62
2024/02/05 07:23:57;;;;;;;;;;;2.20;99.90;;;;;;5063271;28;19955;-62
2024/02/05 07:26:24;;;;;;;;;;;2.20;99.90;;;;;;5055967;28;19924;-62
2024/02/05 07:28:51;;;;;;;;;;;2.10;99.90;;;;;;5053712;28;19964;-68
2024/02/05 07:31:17;;;;;;;;;;;2.10;99.90;;;;;;5054737;28;19978;-65
2024/02/05 07:33:44;;;;;;;;;;;2.10;99.90;;;;;;5049257;28;20032;-62
2024/02/05 07:36:11;;;;;;;;;;;2.10;99.90;;;;;;5058675;28;19935;-65
2024/02/05 07:38:38;;;;;;;;;;;2.10;99.90;;;;;;5054579;28;19979;-62
2024/02/05 07:41:06;;;;;;;;;;;2.10;99.90;;;;;;5057034;28;19939;-60
2024/02/05 07:43:37;;;;;;;;;;;2.10;99.90;;;;;;5055034;28;20019;-61
2024/02/05 07:46:04;;;;;;;;;;;2.00;99.90;;;;;;5045580;28;19925;-67
2024/02/05 07:48:31;;;;;;;;;;;2.00;99.90;;;;;;5046024;28;20665;-64
2024/02/05 07:50:59;;;;;;;;;;;2.00;99.90;;;;;;5057838;28;19929;-63
2024/02/05 07:53:25;;;;;;;;;;;2.00;99.90;;;;;;5056753;28;20631;-59
2024/02/05 07:55:52;;;;;;;;;;;2.00;99.90;;;;;;5051083;28;19924;-69
2024/02/05 07:58:19;;;;;;;;;;;2.00;99.90;;;;;;5047765;28;19928;-70
2024/02/05 08:00:46;;;;;;;;;;;2.00;99.90;;;;;;5047304;28;19959;-61
2024/02/05 08:03:13;;;;;;;;;;;2.00;99.90;;;;;;5050646;28;19925;-59
2024/02/05 08:05:40;;;;;;;;;;;2.00;99.90;;;;;;5049938;28;19932;-60
2024/02/05 08:08:07;;;;;;;;;;;1.90;99.90;;;;;;5054172;28;19929;-66
2024/02/05 08:10:36;;;;;;;;;;;1.90;99.90;;;;;;5051904;28;20325;-60
2024/02/05 08:13:04;;;;;;;;;;;1.90;99.90;;;;;;5056505;28;19943;-64
2024/02/05 08:15:31;;;;;;;;;;;1.90;99.90;;;;;;5048463;28;20372;-63
2024/02/05 08:17:57;;;;;;;;;;;1.90;99.90;;;;;;5053384;28;19925;-61
2024/02/05 08:20:24;;;;;;;;;;;1.90;99.90;;;;;;5054606;28;19933;-63
2024/02/05 08:22:52;;;;;;;;;;;1.80;99.90;;;;;;5053088;28;19999;-63
2024/02/05 08:25:19;;;;;;;;;;;1.80;99.90;;;;;;5050843;28;20453;-62
2024/02/05 08:27:46;;;;;;;;;;;1.80;99.90;;;;;;5047193;28;20052;-62
2024/02/05 08:30:12;;;;;;;;;;;1.80;99.90;;;;;;5045099;28;20374;-63
2024/02/05 08:32:39;;;;;;;;;;;1.80;99.90;;;;;;5049967;28;19928;-65
2024/02/05 08:35:07;;;;;;;;;;;1.80;99.90;;;;;;5049434;28;20448;-65
2024/02/05 08:37:34;;;;;;;;;;;1.80;99.90;;;;;;5051634;28;20017;-60
2024/02/05 08:40:00;;;;;;;;;;;1.80;99.90;;;;;;5049470;28;19933;-72
2024/02/05 08:42:27;;;;;;;;;;;1.80;99.90;;;;;;5063059;28;19944;-68
2024/02/05 08:44:59;;;;;;;;;;;1.80;99.90;;;;;;5042950;28;20282;-64
2024/02/05 08:47:30;;;;;;;;;;;1.80;99.90;;;;;;5049558;28;19928;-60
2024/02/05 08:49:57;;;;;;;;;;;1.80;99.90;;;;;;5050770;28;20116;-59
2024/02/05 08:52:24;;;;;;;;;;;1.80;99.90;;;;;;5056313;28;20013;-62
2024/02/05 08:54:51;;;;;;;;;;;1.80;99.90;;;;;;5047225;28;20367;-60
2024/02/05 08:57:18;;;;;;;;;;;1.80;99.90;;;;;;5051689;28;20365;-60
2024/02/05 08:59:45;;;;;;;;;;;1.80;99.90;;;;;;5050142;28;19932;-60
2024/02/05 09:02:14;;;;;;;;;;;1.80;99.90;;;;;;5053943;28;19933;-62
2024/02/05 09:04:42;;;;;;;;;;;1.80;99.90;;;;;;5053648;28;19968;-63
2024/02/05 09:07:09;;;;;;;;;;;1.80;99.90;;;;;;5050347;28;19928;-72
2024/02/05 09:09:36;;;;;;;;;;;1.80;99.90;;;;;;5047726;28;20297;-59
2024/02/05 09:12:03;;;;;;;;;;;1.80;99.90;;;;;;5045811;28;20391;-60
2024/02/05 09:14:34;;;;;;;;;;;1.80;99.90;;;;;;5053550;28;20444;-59
2024/02/05 09:17:02;;;;;;;;;;;1.80;99.90;;;;;;5053948;28;19964;-68
2024/02/05 09:19:29;;;;;;;;;;;1.80;99.90;;;;;;5053496;28;19944;-61
2024/02/05 09:21:56;;;;;;;;;;;1.80;99.90;;;;;;5052361;28;19956;-67
2024/02/05 09:24:23;;;;;;;;;;;1.80;99.90;;;;;;5051978;28;19947;-64
2024/02/05 09:26:51;;;;;;;;;;;1.80;99.90;;;;;;5046560;28;19929;-60
2024/02/05 09:29:17;;;;;;;;;;;1.80;99.90;;;;;;5050211;28;20039;-64
2024/02/05 09:31:44;;;;;;;;;;;1.80;99.90;;;;;;5048446;28;20848;-63
2024/02/05 09:34:15;;;;;;;;;;;1.80;99.90;;;;;;5047956;28;20003;-63
2024/02/05 09:36:42;;;;;;;;;;;1.80;99.90;;;;;;5052766;28;20075;-62
2024/02/05 09:39:11;;;;;;;;;;;1.80;99.90;;;;;;5046951;28;19964;-61
2024/02/05 09:41:39;;;;;;;;;;;1.70;99.90;;;;;;5048255;28;20389;-63
2024/02/05 09:44:06;;;;;;;;;;;1.80;99.90;;;;;;5054478;28;19979;-65
2024/02/05 09:46:33;;;;;;;;;;;1.80;99.90;;;;;;5047685;28;19935;-65
2024/02/05 09:49:02;;;;;;;;;;;1.70;99.90;;;;;;5053395;28;19929;-64
2024/02/05 09:51:31;;;;;;;;;;;1.70;99.90;;;;;;5054810;28;20019;-60
2024/02/05 09:53:58;;;;;;;;;;;1.70;99.90;;;;;;5054825;28;20378;-61
2024/02/05 09:56:42;;;;;;;;;;;1.70;99.90;;;;;;5068024;28;20278;-65
2024/02/05 09:59:09;;;;;;;;;;;1.60;99.90;;;;;;5058317;28;19928;-65
2024/02/05 10:01:37;;;;;;;;;;;1.60;99.90;;;;;;5053118;28;19964;-58
2024/02/05 10:04:06;;;;;;;;;;;1.70;99.90;;;;;;5053525;28;19940;-66
2024/02/05 10:06:33;;;;;;;;;;;1.70;99.90;;;;;;5054309;28;19928;-63
2024/02/05 10:09:04;;;;;;;;;;;1.60;99.90;;;;;;5049769;28;20018;-74
2024/02/05 10:11:31;;;;;;;;;;;1.60;99.90;;;;;;5052257;28;19955;-62
2024/02/05 10:13:58;;;;;;;;;;;1.60;99.90;;;;;;5047972;28;19939;-58
2024/02/05 10:16:25;;;;;;;;;;;1.60;99.90;;;;;;5045235;28;19959;-62
2024/02/05 10:18:52;;;;;;;;;;;1.60;99.90;;;;;;5050660;28;19987;-59
2024/02/05 10:21:19;;;;;;;;;;;1.50;99.90;;;;;;5052072;28;19974;-57
2024/02/05 10:23:52;;;;;;;;;;;1.50;99.90;;;;;;5051451;28;20018;-63
2024/02/05 10:26:20;;;;;;;;;;;1.50;99.90;;;;;;5047157;28;20378;-58
2024/02/05 10:28:46;;;;;;;;;;;1.50;99.90;;;;;;5051168;28;19990;-64
2024/02/05 10:31:16;;;;;;;;;;;1.50;99.90;;;;;;5054898;28;19929;-59
2024/02/05 10:33:46;;;;;;;;;;;1.40;99.90;;;;;;5050404;28;19929;-61
2024/02/05 10:36:18;;;;;;;;;;;1.50;99.90;;;;;;5049939;28;19929;-63
2024/02/05 10:38:46;;;;;;;;;;;1.50;99.90;;;;;;5054626;28;19925;-59
2024/02/05 10:41:14;;;;;;;;;;;1.50;99.90;;;;;;5056454;28;20650;-69
2024/02/05 10:43:46;;;;;;;;;;;1.60;99.90;;;;;;5050007;28;19936;-63
2024/02/05 10:46:13;;;;;;;;;;;1.50;99.90;;;;;;5058349;28;20031;-60
2024/02/05 10:48:42;;;;;;;;;;;1.50;99.90;;;;;;5056012;28;19932;-60
2024/02/05 10:51:09;;;;;;;;;;;1.50;99.90;;;;;;5052723;28;20373;-59
2024/02/05 10:53:38;;;;;;;;;;;1.60;99.90;;;;;;5050098;28;19987;-66
2024/02/05 10:56:05;;;;;;;;;;;1.50;99.90;;;;;;5052483;28;20031;-66
2024/02/05 10:58:32;;;;;;;;;;;1.50;99.90;;;;;;5049737;28;20581;-59
2024/02/05 11:01:00;;;;;;;;;;;1.60;99.90;;;;;;5046490;28;19933;-60
2024/02/05 11:03:28;;;;;;;;;;;1.60;99.90;;;;;;5055124;28;19932;-60
2024/02/05 11:05:55;;;;;;;;;;;1.60;99.90;;;;;;5050793;28;20603;-61
2024/02/05 11:08:23;;;;;;;;;;;1.60;99.90;;;;;;5057174;28;19929;-59
2024/02/05 11:10:55;;;;;;;;;;;1.60;99.90;;;;;;5046363;28;20695;-59
2024/02/05 11:13:23;;;;;;;;;;;1.50;99.90;;;;;;5052279;28;19924;-61
2024/02/05 11:15:51;;;;;;;;;;;1.50;99.90;;;;;;5053943;28;20354;-57
2024/02/05 11:18:18;;;;;;;;;;;1.50;99.90;;;;;;5057551;28;19929;-64
2024/02/05 11:20:45;;;;;;;;;;;1.50;99.90;;;;;;5051232;28;20290;-60
2024/02/05 11:23:14;;;;;;;;;;;1.50;99.90;;;;;;5055448;28;19929;-61
2024/02/05 11:25:41;;;;;;;;;;;1.50;99.90;;;;;;5051663;28;19936;-58
2024/02/05 11:28:12;;;;;;;;;;;1.50;99.90;;;;;;5056354;28;19929;-60
2024/02/05 11:30:43;;;;;;;;;;;1.50;99.90;;;;;;5048644;28;19956;-61
2024/02/05 11:33:11;;;;;;;;;;;1.50;99.90;;;;;;5056292;28;20015;-60
2024/02/05 11:35:49;;;;;;;;;;;1.50;99.90;;;;;;5057052;28;20021;-60
2024/02/05 11:38:17;;;;;;;;;;;1.60;99.90;;;;;;5051205;28;19925;-59
2024/02/05 11:40:44;;;;;;;;;;;1.60;99.90;;;;;;5052665;28;19932;-58
2024/02/05 11:43:11;;;;;;;;;;;1.70;99.90;;;;;;5051628;28;19929;-59
2024/02/05 11:45:38;;;;;;;;;;;1.70;99.90;;;;;;5044934;28;19990;-58
2024/02/05 11:48:05;;;;;;;;;;;1.70;99.90;;;;;;5048940;28;19933;-59
2024/02/05 11:50:33;;;;;;;;;;;1.70;99.90;;;;;;5053297;28;19932;-58
2024/02/05 11:53:00;;;;;;;;;;;1.70;99.90;;;;;;5044306;28;19928;-58
2024/02/05 11:55:27;;;;;;;;;;;1.70;99.90;;;;;;5054174;28;20010;-58
2024/02/05 11:57:55;;;;;;;;;;;1.80;99.90;;;;;;5051447;28;19925;-59
2024/02/05 12:00:22;;;;;;;;;;;1.80;99.90;;;;;;5053843;28;20506;-58
2024/02/05 12:02:49;;;;;;;;;;;1.80;99.90;;;;;;5050604;28;20460;-59
2024/02/05 12:05:17;;;;;;;;;;;1.80;99.90;;;;;;5047217;28;20437;-58
2024/02/05 12:07:45;;;;;;;;;;;1.80;99.90;;;;;;5049876;28;20018;-59
2024/02/05 12:10:13;;;;;;;;;;;1.80;99.90;;;;;;5052304;28;19939;-64
2024/02/05 12:12:40;;;;;;;;;;;1.90;99.90;;;;;;5048446;28;20019;-58
2024/02/05 12:15:17;;;;;;;;;;;1.90;99.90;;;;;;5052239;28;19936;-62
2024/02/05 12:17:44;;;;;;;;;;;1.90;99.90;;;;;;5047519;28;20454;-60
2024/02/05 12:20:15;;;;;;;;;;;1.90;99.90;;;;;;5049456;28;19928;-59
2024/02/05 12:22:43;;;;;;;;;;;1.90;99.90;;;;;;5050246;28;19925;-61
2024/02/05 12:25:10;;;;;;;;;;;1.90;99.90;;;;;;5050955;28;19960;-58
2024/02/05 12:27:37;;;;;;;;;;;2.00;99.90;;;;;;5049185;28;20611;-59
2024/02/05 12:30:05;;;;;;;;;;;2.00;99.90;;;;;;5047446;28;20478;-62
2024/02/05 12:32:32;;;;;;;;;;;2.00;99.90;;;;;;5056598;28;20382;-58
2024/02/05 12:35:13;;;;;;;;;;;2.00;99.90;;;;;;5053375;28;19929;-58
2024/02/05 12:37:41;;;;;;;;;;;2.10;99.90;;;;;;5049303;28;19924;-59
2024/02/05 12:40:09;;;;;;;;;;;2.10;99.90;;;;;;5051636;28;19982;-62
2024/02/05 12:42:36;;;;;;;;;;;2.10;99.90;;;;;;5056314;28;20304;-58
2024/02/05 12:45:04;;;;;;;;;;;2.00;99.90;;;;;;5053264;28;20495;-63
2024/02/05 12:47:41;;;;;;;;;;;2.00;99.90;;;;;;5051422;28;19928;-60
2024/02/05 12:50:08;;;;;;;;;;;2.00;99.90;;;;;;5053581;28;19929;-61
2024/02/05 12:52:36;;;;;;;;;;;2.00;99.90;;;;;;5047390;28;19934;-59
2024/02/05 12:55:04;;;;;;;;;;;2.10;99.90;;;;;;5050342;28;19933;-60
2024/02/05 12:57:31;;;;;;;;;;;2.10;99.90;;;;;;5053398;28;20437;-60
2024/02/05 12:59:58;;;;;;;;;;;2.10;99.90;;;;;;5048390;28;19932;-61
2024/02/05 13:02:24;;;;;;;;;;;2.10;99.90;;;;;;5054483;28;19932;-58
2024/02/05 13:04:53;;;;;;;;;;;2.00;99.90;;;;;;5056639;28;20616;-59
2024/02/05 13:07:20;;;;;;;;;;;2.00;99.90;;;;;;5048570;28;19932;-59
2024/02/05 13:09:48;;;;;;;;;;;2.00;99.90;;;;;;5052895;28;20298;-58
2024/02/05 13:12:16;;;;;;;;;;;1.90;99.90;;;;;;5056966;28;19992;-58
2024/02/05 13:14:43;;;;;;;;;;;1.90;99.90;;;;;;5059108;28;19925;-60
2024/02/05 13:17:11;;;;;;;;;;;1.90;99.90;;;;;;5047096;28;19932;-59
2024/02/05 13:19:38;;;;;;;;;;;1.90;99.90;;;;;;5053028;28;19929;-60
2024/02/05 13:22:06;;;;;;;;;;;1.90;99.90;;;;;;5048589;28;19925;-62
2024/02/05 13:24:33;;;;;;;;;;;1.80;99.90;;;;;;5057271;28;19924;-59
2024/02/05 13:27:00;;;;;;;;;;;1.80;99.90;;;;;;5046741;28;20021;-59
2024/02/05 13:29:27;;;;;;;;;;;1.80;99.90;;;;;;5069536;28;19981;-59
2024/02/05 13:31:54;;;;;;;;;;;1.80;99.90;;;;;;5052939;28;19936;-59
2024/02/05 13:34:23;;;;;;;;;;;1.80;99.90;;;;;;5056167;28;19924;-59
2024/02/05 13:36:50;;;;;;;;;;;1.80;99.90;;;;;;5048552;28;19940;-63
2024/02/05 13:39:17;;;;;;;;;;;1.80;99.90;;;;;;5060191;28;19929;-64
2024/02/05 13:41:44;;;;;;;;;;;1.70;99.90;;;;;;5051145;28;19928;-59
2024/02/05 13:44:13;;;;;;;;;;;1.70;99.90;;;;;;5053498;28;19982;-59
2024/02/05 13:46:40;;;;;;;;;;;1.70;99.90;;;;;;5052096;28;19925;-59
2024/02/05 13:49:07;;;;;;;;;;;1.70;99.90;;;;;;5056113;28;20799;-62
2024/02/05 13:51:34;;;;;;;;;;;1.70;99.90;;;;;;5057450;28;19935;-61
2024/02/05 13:54:01;;;;;;;;;;;1.70;99.90;;;;;;5053342;28;20435;-60
2024/02/05 13:56:28;;;;;;;;;;;1.70;99.90;;;;;;5054327;28;19951;-60
2024/02/05 13:58:56;;;;;;;;;;;1.70;99.90;;;;;;5069839;28;19933;-60
2024/02/05 14:01:23;;;;;;;;;;;1.70;99.90;;;;;;5048640;28;20687;-58
2024/02/05 14:03:51;;;;;;;;;;;1.70;99.90;;;;;;5055006;28;20003;-58
2024/02/05 14:06:19;;;;;;;;;;;1.60;99.90;;;;;;5048865;28;19955;-61
2024/02/05 14:08:46;;;;;;;;;;;1.60;99.90;;;;;;5052226;28;19968;-59
2024/02/05 14:11:16;;;;;;;;;;;1.60;99.90;;;;;;5053890;28;20392;-60
2024/02/05 14:13:43;;;;;;;;;;;1.60;99.90;;;;;;5054536;28;19933;-60
2024/02/05 14:16:11;;;;;;;;;;;1.60;99.90;;;;;;5054960;28;20358;-60
2024/02/05 14:18:38;;;;;;;;;;;1.50;99.90;;;;;;5053040;28;19933;-59
2024/02/05 14:21:05;;;;;;;;;;;1.50;99.90;;;;;;5059853;28;20442;-63
2024/02/05 14:23:32;;;;;;;;;;;1.50;99.90;;;;;;5057962;28;20577;-59
2024/02/05 14:25:59;;;;;;;;;;;1.50;99.90;;;;;;5053235;28;19991;-58
2024/02/05 14:28:26;;;;;;;;;;;1.50;99.90;;;;;;5052494;28;19976;-64
2024/02/05 14:30:53;;;;;;;;;;;1.40;99.90;;;;;;5056166;28;20021;-59
2024/02/05 14:33:19;;;;;;;;;;;1.40;99.90;;;;;;5054247;28;19928;-59